Time;durP1;ratioP1;P1;durP2;ratioP2;P2;SDS_P1;SDS_P2;PMS_P1;PMS_P2;Temp;Humidity;BMP_temperature;BMP_pressure;BME280_temperature;BME280_humidity;BME280_pressure;Samples;Min_cycle;Max_cycle;Signal;HPM_P1;HPM_P2
2023/09/08 00:02:11;;;;;;;2.55;1.42;;;;;;;13.27;57.23;100321.34;4930178;29;20051;-78
2023/09/08 00:04:37;;;;;;;3.20;2.13;;;;;;;13.25;57.23;100324.00;4944778;28;20040;-79
2023/09/08 00:07:04;;;;;;;2.92;1.50;;;;;;;13.25;57.10;100320.50;4914637;29;20062;-79
2023/09/08 00:09:30;;;;;;;5.28;1.88;;;;;;;13.15;57.27;100298.00;4946217;29;20031;-83
2023/09/08 00:11:56;;;;;;;3.15;1.67;;;;;;;13.22;57.25;100308.34;4933613;29;20035;-81
2023/09/08 00:14:22;;;;;;;2.85;1.58;;;;;;;13.04;57.30;100292.91;4930068;29;20039;-79
2023/09/08 00:16:48;;;;;;;2.55;1.40;;;;;;;13.20;57.24;100311.88;4910930;29;20067;-77
2023/09/08 00:19:14;;;;;;;4.65;1.52;;;;;;;13.03;57.32;100284.19;4942421;28;20122;-78
2023/09/08 00:21:43;;;;;;;2.30;1.55;;;;;;;13.08;57.51;100289.38;4927562;29;20502;-78
2023/09/08 00:24:09;;;;;;;1.83;1.23;;;;;;;13.18;57.35;100304.03;4922733;29;20040;-76
2023/09/08 00:26:35;;;;;;;4.47;1.48;;;;;;;13.00;57.28;100267.69;4926447;29;20055;-79
2023/09/08 00:29:01;;;;;;;4.45;1.60;;;;;;;13.21;56.89;100303.16;4941710;29;20498;-78
2023/09/08 00:31:27;;;;;;;2.42;1.40;;;;;;;13.20;56.86;100304.88;4942431;29;20539;-77
2023/09/08 00:33:52;;;;;;;3.20;1.50;;;;;;;13.06;57.16;100284.16;4928562;29;20047;-78
2023/09/08 00:36:19;;;;;;;3.15;1.50;;;;;;;13.00;57.17;100263.34;4912305;29;20035;-78
2023/09/08 00:38:45;;;;;;;2.08;1.40;;;;;;;13.19;56.84;100292.72;4912569;29;20058;-78
2023/09/08 00:41:12;;;;;;;2.28;1.40;;;;;;;13.24;57.01;100288.31;4927993;29;20054;-79
2023/09/08 00:43:41;;;;;;;2.30;1.30;;;;;;;12.93;56.98;100249.47;4943391;29;20051;-77
2023/09/08 00:46:08;;;;;;;5.45;1.70;;;;;;;12.85;56.92;100227.81;4911124;29;20105;-79
2023/09/08 00:48:38;;;;;;;2.75;1.70;;;;;;;13.05;57.02;100265.88;4929802;29;20039;-79
2023/09/08 00:51:10;;;;;;;3.33;1.52;;;;;;;13.10;56.77;100269.31;4930082;29;20040;-78
2023/09/08 00:53:36;;;;;;;;;;;;;;;13.19;56.96;100287.47;4943781;28;20663;-79
2023/09/08 00:56:04;;;;;;;3.38;1.67;;;;;;;13.08;56.78;100271.94;4945037;28;19953;-78
2023/09/08 00:58:31;;;;;;;2.78;1.80;;;;;;;13.09;56.70;100278.03;4928355;29;20046;-78
2023/09/08 01:00:57;;;;;;;2.40;1.73;;;;;;;13.16;56.80;100295.34;4943999;29;20051;-80
2023/09/08 01:03:24;;;;;;;4.05;1.95;;;;;;;13.08;56.82;100273.69;4932704;29;20126;-80
2023/09/08 01:05:52;;;;;;;3.28;1.80;;;;;;;12.91;56.73;100246.00;4930802;29;20039;-81
2023/09/08 01:08:19;;;;;;;5.28;2.20;;;;;;;12.92;56.76;100246.88;4948318;28;20063;-81
2023/09/08 01:10:46;;;;;;;4.28;2.05;;;;;;;13.04;56.88;100264.16;4915989;29;20063;-82
2023/09/08 01:13:12;;;;;;;4.30;1.90;;;;;;;12.86;57.02;100239.09;4914085;29;20032;-81
2023/09/08 01:15:39;;;;;;;3.17;1.65;;;;;;;13.04;57.01;100264.16;4933139;29;20063;-81
2023/09/08 01:18:06;;;;;;;4.53;1.83;;;;;;;13.15;57.09;100288.41;4946568;28;20511;-82
2023/09/08 01:20:56;;;;;;;2.55;1.42;;;;;;;12.96;57.17;100251.19;4934687;29;20039;-81
2023/09/08 01:23:28;;;;;;;3.90;1.60;;;;;;;12.54;56.95;100182.91;4914019;29;20102;-80
2023/09/08 01:26:08;;;;;;;3.20;1.42;;;;;;;12.84;57.17;100219.97;4944662;29;20053;-81
2023/09/08 01:28:35;;;;;;;2.35;1.42;;;;;;;13.00;57.41;100236.34;4930180;29;20194;-81
2023/09/08 01:31:02;;;;;;;3.50;1.50;;;;;;;13.12;57.31;100257.09;4930225;29;20043;-80
2023/09/08 01:33:28;;;;;;;4.68;1.45;;;;;;;12.91;57.09;100226.88;4944473;29;20138;-79
2023/09/08 01:35:55;;;;;;;2.60;1.20;;;;;;;13.14;57.57;100265.75;4919314;29;20054;-82
2023/09/08 01:38:22;;;;;;;1.85;1.20;;;;;;;12.90;57.34;100230.34;4945808;28;20135;-77
2023/09/08 01:40:50;;;;;;;1.73;1.10;;;;;;;13.17;57.19;100270.94;4910462;29;20130;-77
2023/09/08 01:43:16;;;;;;;2.20;1.27;;;;;;;13.02;57.75;100250.25;4943363;28;21206;-76
2023/09/08 01:45:42;;;;;;;3.22;1.17;;;;;;;13.00;57.59;100237.22;4942253;28;20050;-77
2023/09/08 01:48:09;;;;;;;2.22;1.48;;;;;;;12.99;57.63;100234.59;4943473;28;20039;-80
2023/09/08 01:50:35;;;;;;;4.05;1.05;;;;;;;13.16;57.52;100263.16;4925631;29;20548;-77
2023/09/08 01:53:01;;;;;;;1.83;1.30;;;;;;;12.77;57.65;100208.75;4942485;28;20518;-76
2023/09/08 01:55:28;;;;;;;1.70;1.10;;;;;;;12.68;57.89;100214.94;4924945;29;20032;-76
2023/09/08 01:57:56;;;;;;;1.80;1.25;;;;;;;12.78;58.04;100218.31;4907834;29;20067;-80
2023/09/08 02:00:22;;;;;;;2.22;1.20;;;;;;;12.81;58.12;100218.28;4927443;29;20074;-80
2023/09/08 02:02:48;;;;;;;4.38;1.40;;;;;;;12.93;58.03;100232.94;4927922;29;20043;-79
2023/09/08 02:05:15;;;;;;;3.88;1.40;;;;;;;12.95;58.37;100239.84;4927242;29;20078;-80
2023/09/08 02:07:42;;;;;;;3.90;1.30;;;;;;;12.87;58.52;100231.28;4943765;29;20047;-77
2023/09/08 02:10:10;;;;;;;2.03;1.40;;;;;;;12.83;58.67;100228.69;4911929;29;20046;-80
2023/09/08 02:12:39;;;;;;;2.65;1.35;;;;;;;12.84;58.49;100231.31;4944365;29;20051;-80
2023/09/08 02:15:38;;;;;;;4.15;1.58;;;;;;;12.68;58.78;100214.09;4927037;29;20986;-80
2023/09/08 02:18:09;;;;;;;3.28;1.30;;;;;;;12.52;59.08;100188.13;4927288;29;20142;-78
2023/09/08 02:20:55;;;;;;;1.75;1.05;;;;;;;12.44;59.27;100171.69;4940342;28;20138;-78
2023/09/08 02:23:21;;;;;;;1.70;1.17;;;;;;;12.79;59.63;100228.75;4942448;28;20054;-79
2023/09/08 02:25:48;;;;;;;3.38;1.50;;;;;;;12.79;59.25;100239.19;4925851;29;20525;-80
2023/09/08 02:28:14;;;;;;;2.55;1.40;;;;;;;12.76;59.82;100231.38;4927624;29;20140;-80
2023/09/08 02:30:40;;;;;;;3.78;1.50;;;;;;;12.74;59.88;100234.88;4913463;29;20106;-80
2023/09/08 02:33:06;;;;;;;4.10;1.35;;;;;;;12.70;60.17;100220.13;4946123;28;20130;-80
2023/09/08 02:35:38;;;;;;;3.03;1.40;;;;;;;12.65;60.08;100215.84;4912918;29;20146;-81
2023/09/08 02:38:05;;;;;;;2.53;1.27;;;;;;;12.60;60.45;100211.53;4935401;29;20047;-81
2023/09/08 02:40:34;;;;;;;1.65;1.20;;;;;;;12.62;60.52;100230.66;4933193;29;20043;-80
2023/09/08 02:43:01;;;;;;;2.70;1.20;;;;;;;12.43;60.92;100203.91;4935111;29;20126;-81
2023/09/08 02:45:27;;;;;;;2.45;1.20;;;;;;;12.04;61.08;100147.72;4920480;29;20058;-80
2023/09/08 02:47:54;;;;;;;1.67;1.02;;;;;;;12.39;61.27;100213.47;4931544;29;20185;-80
2023/09/08 02:50:20;;;;;;;1.52;1.10;;;;;;;12.33;61.34;100208.34;4951090;28;20047;-81
2023/09/08 02:52:46;;;;;;;2.10;1.25;;;;;;;12.23;61.43;100178.88;4919280;29;20548;-80
2023/09/08 02:55:15;;;;;;;2.20;1.00;;;;;;;12.49;61.42;100212.53;4956284;28;20054;-83
2023/09/08 02:57:45;;;;;;;2.22;1.23;;;;;;;12.38;61.50;100185.66;4938585;29;20143;-82
2023/09/08 03:00:11;;;;;;;2.08;1.30;;;;;;;12.25;61.51;100168.41;4912879;29;20410;-79
2023/09/08 03:02:37;;;;;;;5.50;1.25;;;;;;;12.31;61.65;100150.09;4933502;29;20130;-81
2023/09/08 03:05:04;;;;;;;1.65;1.20;;;;;;;12.57;61.59;100188.09;4949170;28;20051;-80
2023/09/08 03:07:33;;;;;;;1.95;1.50;;;;;;;12.61;61.70;100190.66;4917771;29;20055;-84
2023/09/08 03:09:59;;;;;;;1.58;0.98;;;;;;;12.49;61.78;100162.03;4949577;28;20075;-84
2023/09/08 03:12:26;;;;;;;2.17;1.27;;;;;;;12.63;61.67;100159.28;4949887;29;20086;-82
2023/09/08 03:14:52;;;;;;;2.17;1.20;;;;;;;12.55;61.58;100150.69;4948612;28;20040;-80
2023/09/08 03:17:18;;;;;;;1.50;1.00;;;;;;;12.77;61.32;100165.22;4913725;29;20047;-80
2023/09/08 03:19:47;;;;;;;4.28;1.45;;;;;;;12.97;61.38;100190.22;4937851;29;20075;-81
2023/09/08 03:22:13;;;;;;;4.10;1.13;;;;;;;12.90;61.48;100173.78;4947774;28;20106;-79
2023/09/08 03:24:40;;;;;;;1.58;1.15;;;;;;;13.06;61.05;100202.31;4932186;29;20590;-79
2023/09/08 03:27:06;;;;;;;2.90;1.30;;;;;;;12.81;61.23;100150.38;4931503;29;20644;-81
2023/09/08 03:29:32;;;;;;;2.95;1.10;;;;;;;12.95;60.86;100174.56;4947851;29;20039;-83
2023/09/08 03:31:59;;;;;;;4.63;1.35;;;;;;;12.68;61.00;100133.16;4931857;29;20047;-79
2023/09/08 03:34:25;;;;;;;2.78;1.27;;;;;;;13.06;61.25;100203.16;4913100;29;20035;-82
2023/09/08 03:36:53;;;;;;;1.83;1.20;;;;;;;13.09;61.11;100182.22;4948654;28;20031;-82
2023/09/08 03:39:20;;;;;;;3.85;1.20;;;;;;;12.95;60.94;100143.22;4932786;29;20095;-85
2023/09/08 03:41:47;;;;;;;1.55;1.23;;;;;;;13.19;61.03;100158.59;4915791;29;20039;-82
2023/09/08 03:44:13;;;;;;;2.63;1.05;;;;;;;13.36;60.51;100160.94;4935444;29;20036;-82
2023/09/08 03:46:39;;;;;;;2.20;1.45;;;;;;;13.54;60.66;100181.66;4939007;29;20039;-82
2023/09/08 03:49:06;;;;;;;2.33;1.25;;;;;;;13.24;60.58;100114.97;4932780;29;20039;-81
2023/09/08 03:51:32;;;;;;;2.17;1.23;;;;;;;13.62;60.12;100149.28;4930865;29;20122;-80
2023/09/08 03:53:58;;;;;;;2.30;1.25;;;;;;;13.74;60.15;100172.63;4932693;29;20070;-81
2023/09/08 03:56:24;;;;;;;1.75;1.20;;;;;;;13.60;59.88;100138.84;4933600;29;20135;-78
2023/09/08 03:58:51;;;;;;;2.20;1.38;;;;;;;13.95;59.89;100166.16;4948426;29;20516;-80
2023/09/08 04:01:17;;;;;;;2.65;1.10;;;;;;;13.58;59.73;100104.00;4922032;29;20052;-81
2023/09/08 04:03:43;;;;;;;2.97;1.30;;;;;;;13.86;58.98;100146.25;4951215;29;20040;-83
2023/09/08 04:06:09;;;;;;;2.42;1.10;;;;;;;13.78;59.41;100137.69;4918353;29;20606;-83
2023/09/08 04:08:39;;;;;;;4.85;1.20;;;;;;;13.78;59.42;100124.63;4925097;29;20323;-82
2023/09/08 04:11:08;;;;;;;3.92;1.30;;;;;;;14.18;59.58;100140.50;4940998;29;20197;-84
2023/09/08 04:13:34;;;;;;;3.58;1.20;;;;;;;14.44;58.85;100147.84;4937152;29;20051;-83
2023/09/08 04:16:00;;;;;;;2.15;1.10;;;;;;;14.73;58.51;100149.91;4947456;28;20066;-82
2023/09/08 04:18:27;;;;;;;2.17;1.10;;;;;;;14.97;58.01;100149.44;4947762;29;20393;-81
2023/09/08 04:20:53;;;;;;;2.95;1.20;;;;;;;15.17;57.52;100139.38;4946769;28;20044;-83
2023/09/08 04:23:20;;;;;;;2.00;1.40;;;;;;;15.55;57.29;100141.13;4947923;28;20062;-81
2023/09/08 04:25:46;;;;;;;4.70;1.20;;;;;;;15.69;56.41;100110.19;4959995;28;20044;-84
2023/09/08 04:28:12;;;;;;;1.85;1.10;;;;;;;16.01;55.30;100112.91;4917841;29;20047;-85
2023/09/08 04:30:39;;;;;;;3.83;1.15;;;;;;;16.09;55.05;100124.06;4955055;28;20054;-83
2023/09/08 04:33:05;;;;;;;2.75;1.30;;;;;;;16.07;54.72;100121.50;4954323;29;20046;-84
2023/09/08 04:35:32;;;;;;;1.60;1.02;;;;;;;16.03;54.36;100118.97;4949409;28;20032;-84
2023/09/08 04:37:59;;;;;;;2.25;1.23;;;;;;;16.08;53.68;100143.34;4910142;29;20143;-80
2023/09/08 04:40:25;;;;;;;2.83;1.17;;;;;;;15.74;53.75;100096.97;4928055;29;20122;-82
2023/09/08 04:42:51;;;;;;;1.40;1.20;;;;;;;15.92;53.90;100104.38;4945544;28;20054;-79
2023/09/08 04:45:17;;;;;;;2.28;1.20;;;;;;;16.29;53.40;100127.91;4922425;29;20040;-80
2023/09/08 04:47:47;;;;;;;3.13;1.00;;;;;;;16.49;52.99;100117.72;4931221;29;20050;-81
2023/09/08 04:50:13;;;;;;;2.67;1.30;;;;;;;16.48;52.21;100094.97;4929702;29;20035;-79
2023/09/08 04:52:40;;;;;;;2.83;1.55;;;;;;;16.64;52.09;100111.16;4923285;29;20039;-85
2023/09/08 04:55:07;;;;;;;3.72;1.20;;;;;;;16.80;51.72;100101.06;4932896;29;20048;-82
2023/09/08 04:57:33;;;;;;;3.15;1.13;;;;;;;17.13;50.42;100119.38;4931119;29;20054;-83
2023/09/08 05:00:00;;;;;;;3.17;1.10;;;;;;;17.06;50.25;100095.94;4930334;29;20035;-83
2023/09/08 05:02:26;;;;;;;1.67;1.10;;;;;;;17.04;49.82;100069.72;4933092;29;20082;-82
2023/09/08 05:04:52;;;;;;;1.17;1.00;;;;;;;17.02;49.50;100085.53;4947105;28;20040;-83
2023/09/08 05:07:26;;;;;;;2.58;1.05;;;;;;;17.17;49.51;100115.75;4920139;29;20414;-91
2023/09/08 05:09:52;;;;;;;1.48;0.95;;;;;;;17.14;49.17;100117.63;4940069;29;20044;-86
2023/09/08 05:12:18;;;;;;;2.42;1.10;;;;;;;17.11;49.09;100100.16;4934964;29;20044;-84
2023/09/08 05:14:45;;;;;;;2.97;1.20;;;;;;;16.85;48.86;100046.63;4901167;29;20047;-82
2023/09/08 05:17:11;;;;;;;2.53;1.08;;;;;;;18.45;49.00;100095.69;4911698;29;20083;-81
2023/09/08 05:19:37;;;;;;;1.25;1.10;;;;;;;19.90;47.19;100077.72;4932193;29;20047;-79
2023/09/08 05:22:06;;;;;;;2.10;1.00;;;;;;;20.95;44.82;100051.84;4941174;28;20043;-78
2023/09/08 05:24:33;;;;;;;1.42;1.02;;;;;;;22.27;42.79;100063.78;4927852;29;20048;-80
2023/09/08 05:26:59;;;;;;;3.55;0.90;;;;;;;22.27;41.77;100067.28;4926059;29;20051;-78
2023/09/08 05:29:26;;;;;;;3.20;1.00;;;;;;;21.84;40.60;100077.47;4909495;29;20423;-78
2023/09/08 05:31:53;;;;;;;3.40;1.17;;;;;;;21.86;40.65;100059.72;4927428;29;20075;-79
2023/09/08 05:34:19;;;;;;;2.40;1.30;;;;;;;22.10;40.84;100056.72;4940828;28;20036;-77
2023/09/08 05:36:45;;;;;;;1.60;1.10;;;;;;;23.20;39.15;100079.06;4925444;29;20055;-79
2023/09/08 05:39:14;;;;;;;1.42;1.10;;;;;;;24.52;37.56;100056.19;4928723;29;20159;-85
2023/09/08 05:41:40;;;;;;;4.22;1.50;;;;;;;25.77;35.21;100043.66;4949762;29;20367;-89
2023/09/08 05:44:06;;;;;;;6.32;1.30;;;;;;;26.63;32.86;99996.72;4930088;29;20141;-85
2023/09/08 05:46:33;;;;;;;1.83;1.23;;;;;;;27.74;32.59;100021.47;4934571;29;20578;-80
2023/09/08 05:48:59;;;;;;;2.42;1.20;;;;;;;28.04;31.23;99983.44;4934747;29;20525;-82
2023/09/08 05:51:25;;;;;;;3.92;1.30;;;;;;;28.49;30.01;100008.47;4945778;28;20129;-84
2023/09/08 05:53:53;;;;;;;2.28;1.02;;;;;;;29.29;28.56;100017.09;4926542;29;20090;-77
2023/09/08 05:56:24;;;;;;;2.63;1.10;;;;;;;29.56;28.27;100015.78;4943585;28;20036;-81
2023/09/08 05:58:53;;;;;;;7.63;1.23;;;;;;;30.54;26.80;100018.03;4910767;29;20048;-77
2023/09/08 06:01:19;;;;;;;2.25;1.23;;;;;;;30.33;26.43;100022.53;4928441;29;20154;-82
2023/09/08 06:03:46;;;;;;;3.20;1.13;;;;;;;31.48;26.18;100011.34;4928311;29;20055;-78
2023/09/08 06:06:13;;;;;;;4.43;1.75;;;;;;;32.47;24.42;100004.59;4926122;29;20047;-80
2023/09/08 06:08:41;;;;;;;3.47;1.30;;;;;;;32.27;23.76;99991.28;4940065;28;20039;-80
2023/09/08 06:11:12;;;;;;;3.33;1.20;;;;;;;32.62;23.29;99963.72;4933771;28;20063;-80
2023/09/08 06:13:38;;;;;;;1.83;0.93;;;;;;;32.97;22.99;99975.50;4929125;29;20054;-80
2023/09/08 06:16:05;;;;;;;2.55;1.13;;;;;;;32.22;22.71;99977.38;4912430;29;20036;-80
2023/09/08 06:18:31;;;;;;;2.75;1.20;;;;;;;30.99;23.22;99997.94;4928605;29;20040;-80
2023/09/08 06:20:58;;;;;;;1.95;1.20;;;;;;;29.68;24.20;99976.34;4930306;29;20047;-82
2023/09/08 06:23:24;;;;;;;2.65;1.10;;;;;;;29.37;24.42;99968.25;4926691;29;20142;-78
2023/09/08 06:25:59;;;;;;;2.88;1.73;;;;;;;31.14;24.25;99992.94;4939437;29;20152;-80
2023/09/08 06:28:27;;;;;;;6.85;1.95;;;;;;;33.39;22.10;99926.31;4919121;29;20063;-80
2023/09/08 06:30:54;;;;;;;5.50;1.67;;;;;;;34.70;20.40;99951.28;4941490;28;20648;-77
2023/09/08 06:33:22;;;;;;;2.53;1.40;;;;;;;35.38;19.68;99981.69;4911683;29;20048;-81
2023/09/08 06:35:49;;;;;;;1.92;0.98;;;;;;;35.04;19.03;99950.28;4944688;28;20047;-80
2023/09/08 06:38:15;;;;;;;1.90;1.10;;;;;;;33.93;19.59;99958.47;4930577;29;20478;-85
2023/09/08 06:40:41;;;;;;;5.25;1.45;;;;;;;32.35;20.48;99934.00;4955498;28;20581;-84
2023/09/08 06:43:08;;;;;;;2.90;1.20;;;;;;;30.97;21.12;99947.00;4932504;29;20108;-83
2023/09/08 06:45:57;;;;;;;3.92;1.23;;;;;;;30.15;22.52;99946.34;4928741;29;20044;-84
2023/09/08 06:48:23;;;;;;;1.20;1.10;;;;;;;30.62;22.02;99951.97;4913874;29;20043;-78
2023/09/08 06:50:54;;;;;;;3.70;1.40;;;;;;;31.83;21.41;99954.22;4913188;29;20047;-80
2023/09/08 06:53:22;;;;;;;3.63;1.40;;;;;;;32.42;20.89;99943.16;4927089;29;20162;-77
2023/09/08 06:55:49;;;;;;;3.33;1.67;;;;;;;31.60;20.79;99934.88;4912195;29;20036;-76
2023/09/08 06:58:15;;;;;;;3.20;1.33;;;;;;;30.96;21.11;99942.63;4943270;29;20059;-81
2023/09/08 07:00:41;;;;;;;5.70;1.38;;;;;;;31.59;21.50;99924.28;4927247;29;20090;-76
2023/09/08 07:03:08;;;;;;;4.03;1.20;;;;;;;31.36;21.05;99938.09;4928761;29;20054;-77
2023/09/08 07:05:34;;;;;;;2.85;1.50;;;;;;;31.97;20.54;99903.59;4927114;29;20490;-78
2023/09/08 07:08:01;;;;;;;2.55;1.20;;;;;;;33.79;19.45;99932.91;4926631;29;20047;-78
2023/09/08 07:10:27;;;;;;;5.70;1.38;;;;;;;33.23;18.55;99918.94;4930646;29;20048;-82
2023/09/08 07:12:53;;;;;;;3.42;1.45;;;;;;;31.78;19.95;99926.09;4927866;29;20047;-79
2023/09/08 07:15:20;;;;;;;3.83;1.30;;;;;;;30.39;20.76;99920.97;4914200;29;20047;-80
2023/09/08 07:17:46;;;;;;;3.83;1.48;;;;;;;30.50;21.45;99880.59;4927130;29;20122;-79
2023/09/08 07:20:12;;;;;;;1.92;1.10;;;;;;;32.07;20.64;99888.28;4913506;29;20039;-79
2023/09/08 07:22:42;;;;;;;9.02;2.03;;;;;;;31.88;20.17;99902.66;4915400;29;20069;-82
2023/09/08 07:25:09;;;;;;;3.55;1.40;;;;;;;31.00;20.90;99895.69;4927439;29;20042;-78
2023/09/08 07:27:36;;;;;;;5.85;1.55;;;;;;;30.69;20.81;99909.28;4925058;29;20144;-67
2023/09/08 07:30:05;;;;;;;3.92;1.60;;;;;;;30.53;20.72;99900.94;4923434;29;20489;-73
2023/09/08 07:32:33;;;;;;;7.57;1.80;;;;;;;30.64;21.39;99917.78;4922739;29;20074;-74
2023/09/08 07:35:01;;;;;;;3.88;1.60;;;;;;;30.39;21.02;99912.91;4944150;28;20639;-74
2023/09/08 07:37:29;;;;;;;6.07;1.70;;;;;;;30.46;21.48;99922.13;4911378;29;20058;-75
2023/09/08 07:39:56;;;;;;;2.85;1.55;;;;;;;29.59;22.14;99862.75;4939898;28;20142;-74
2023/09/08 07:42:23;;;;;;;1.88;1.35;;;;;;;30.48;21.37;99871.84;4925173;29;20051;-77
2023/09/08 07:44:49;;;;;;;2.78;1.45;;;;;;;31.99;20.22;99901.63;4922192;29;20416;-75
2023/09/08 07:47:15;;;;;;;3.28;1.40;;;;;;;33.88;19.24;99855.56;4924958;29;20043;-71
2023/09/08 07:49:47;;;;;;;2.85;1.40;;;;;;;35.92;18.36;99887.38;4925660;29;20419;-73
2023/09/08 07:52:22;;;;;;;7.97;1.67;;;;;;;36.87;16.80;99888.06;4924489;29;20062;-76
2023/09/08 07:54:48;;;;;;;1.77;1.20;;;;;;;36.78;17.32;99869.19;4923273;29;20102;-72
2023/09/08 07:57:14;;;;;;;3.85;1.70;;;;;;;35.71;17.00;99838.25;4924664;29;20078;-75
2023/09/08 07:59:40;;;;;;;4.22;1.13;;;;;;;35.20;17.17;99878.31;4939815;29;20174;-74
2023/09/08 08:02:06;;;;;;;2.97;1.23;;;;;;;35.63;16.81;99865.34;4940619;28;20367;-73
2023/09/08 08:04:32;;;;;;;2.78;1.35;;;;;;;34.77;16.80;99876.63;4924311;29;20036;-73
2023/09/08 08:06:58;;;;;;;4.90;1.63;;;;;;;33.18;17.64;99870.06;4937673;29;20586;-74
2023/09/08 08:09:24;;;;;;;3.15;1.35;;;;;;;31.12;19.60;99877.56;4921271;29;20047;-73
2023/09/08 08:11:50;;;;;;;6.10;1.35;;;;;;;29.09;20.48;99860.78;4926132;29;20043;-73
2023/09/08 08:14:16;;;;;;;3.20;1.17;;;;;;;28.08;21.71;99871.75;4923858;29;20123;-73
2023/09/08 08:16:42;;;;;;;4.38;1.20;;;;;;;26.65;23.07;99871.22;4918121;29;20063;-73
2023/09/08 08:19:09;;;;;;;6.05;1.40;;;;;;;25.77;23.75;99876.63;4924121;29;20058;-76
2023/09/08 08:21:35;;;;;;;7.05;1.75;;;;;;;26.67;24.83;99856.78;4923913;29;20138;-76
2023/09/08 08:24:01;;;;;;;5.80;1.73;;;;;;;27.44;23.60;99839.34;4929333;29;20455;-75
2023/09/08 08:26:32;;;;;;;5.13;1.40;;;;;;;27.33;23.80;99824.16;4923408;29;20075;-75
2023/09/08 08:28:58;;;;;;;3.25;1.10;;;;;;;27.38;23.89;99855.00;4940654;28;20071;-77
2023/09/08 08:31:24;;;;;;;5.45;1.20;;;;;;;27.55;23.42;99838.53;4923930;29;20043;-76
2023/09/08 08:33:50;;;;;;;5.55;1.63;;;;;;;27.36;23.82;99823.94;4922815;29;20094;-78
2023/09/08 08:36:16;;;;;;;4.70;1.55;;;;;;;26.85;23.94;99825.22;4925082;29;20044;-78
2023/09/08 08:38:42;;;;;;;2.72;1.42;;;;;;;25.74;24.66;99822.72;4923195;29;20102;-80
2023/09/08 08:41:08;;;;;;;4.53;1.27;;;;;;;25.04;25.59;99830.25;4941263;28;20054;-83
2023/09/08 08:43:34;;;;;;;2.67;1.20;;;;;;;24.03;26.39;99807.66;4942752;29;20568;-76
2023/09/08 08:46:03;;;;;;;2.03;1.10;;;;;;;23.52;27.22;99845.34;4907405;29;20043;-78
2023/09/08 08:48:33;;;;;;;4.00;1.15;;;;;;;22.83;28.02;99811.44;4928752;29;20095;-79
2023/09/08 08:51:00;;;;;;;2.88;1.02;;;;;;;22.50;28.87;99831.06;4942840;28;20447;-77
2023/09/08 08:53:26;;;;;;;2.10;1.00;;;;;;;22.23;29.16;99798.06;4925058;29;20477;-80
2023/09/08 08:55:58;;;;;;;4.55;1.60;;;;;;;22.32;29.62;99835.59;4925960;29;20098;-79
2023/09/08 08:58:26;;;;;;;1.80;0.98;;;;;;;21.76;29.41;99777.78;4940349;28;20044;-80
2023/09/08 09:00:56;;;;;;;2.92;1.10;;;;;;;21.85;29.78;99811.72;4930953;29;20059;-82
2023/09/08 09:03:29;;;;;;;2.63;1.00;;;;;;;21.48;30.53;99755.47;4942582;28;20044;-80
2023/09/08 09:05:56;;;;;;;3.72;1.23;;;;;;;21.45;29.88;99722.06;4909300;29;20529;-78
2023/09/08 09:08:23;;;;;;;2.53;1.00;;;;;;;21.80;30.78;99788.13;4944593;28;20111;-78
2023/09/08 09:10:51;;;;;;;2.42;1.10;;;;;;;21.61;30.62;99759.19;4925755;29;20134;-79
2023/09/08 09:13:18;;;;;;;4.13;1.60;;;;;;;21.77;30.61;99796.25;4895848;29;20102;-79
2023/09/08 09:15:45;;;;;;;5.22;1.25;;;;;;;21.67;31.04;99790.63;4942922;28;20550;-80
2023/09/08 09:18:11;;;;;;;3.05;1.15;;;;;;;21.77;31.35;99803.31;4943029;28;20040;-81
2023/09/08 09:20:37;;;;;;;3.28;1.10;;;;;;;21.81;31.35;99804.88;4916379;29;22149;-79
2023/09/08 09:23:03;;;;;;;4.20;1.48;;;;;;;21.84;31.22;99746.44;4943263;28;20462;-79
2023/09/08 09:25:31;;;;;;;6.68;1.40;;;;;;;21.95;31.30;99741.41;4926983;29;20050;-80
2023/09/08 09:27:59;;;;;;;5.97;1.60;;;;;;;21.94;31.10;99766.19;4929037;29;20040;-76
2023/09/08 09:30:27;;;;;;;5.25;1.35;;;;;;;21.61;31.82;99776.88;4926488;29;20043;-77
2023/09/08 09:33:04;;;;;;;2.92;1.30;;;;;;;21.13;32.27;99750.28;4907574;29;20130;-79
2023/09/08 09:35:49;;;;;;;3.58;1.17;;;;;;;20.99;32.90;99788.06;4925659;29;20134;-81
2023/09/08 09:38:19;;;;;;;3.25;1.25;;;;;;;20.76;32.82;99785.69;4913372;29;20092;-78
2023/09/08 09:40:46;;;;;;;2.63;1.25;;;;;;;20.45;33.22;99755.50;4926597;29;20130;-80
2023/09/08 09:43:13;;;;;;;2.15;1.00;;;;;;;20.37;33.73;99754.19;4912758;29;20043;-81
2023/09/08 09:45:41;;;;;;;8.85;1.30;;;;;;;20.44;34.15;99780.22;4925833;29;20131;-76
2023/09/08 09:48:11;;;;;;;4.05;1.33;;;;;;;20.29;34.48;99780.97;4894643;29;20044;-79
2023/09/08 09:50:39;;;;;;;3.15;1.08;;;;;;;19.93;34.98;99790.63;4944498;29;20130;-85
2023/09/08 09:53:11;;;;;;;3.13;1.33;;;;;;;19.79;35.98;99785.13;4926789;29;20410;-76
2023/09/08 09:55:39;;;;;;;5.13;1.30;;;;;;;19.43;37.02;99752.47;4907199;29;20543;-75
2023/09/08 09:58:05;;;;;;;3.38;0.90;;;;;;;19.57;36.83;99739.47;4932345;29;20103;-78
2023/09/08 10:00:33;;;;;;;5.65;1.42;;;;;;;19.86;36.60;99779.47;4943305;29;20062;-79
2023/09/08 10:02:59;;;;;;;4.13;1.20;;;;;;;19.88;36.90;99778.59;4908632;29;20118;-78
2023/09/08 10:05:26;;;;;;;5.60;1.20;;;;;;;19.97;37.03;99783.44;4925533;29;20055;-78
2023/09/08 10:07:53;;;;;;;2.92;1.33;;;;;;;19.96;37.22;99785.19;4926106;29;20155;-77
2023/09/08 10:10:21;;;;;;;4.10;1.45;;;;;;;19.58;37.26;99713.97;4906921;29;20059;-77
2023/09/08 10:12:54;;;;;;;5.97;1.60;;;;;;;19.35;37.07;99722.94;4905049;29;20047;-78
2023/09/08 10:15:22;;;;;;;2.80;1.10;;;;;;;19.39;37.42;99740.34;4925084;29;20348;-77
2023/09/08 10:17:57;;;;;;;2.97;1.10;;;;;;;19.77;36.73;99779.91;4941800;28;20044;-77
2023/09/08 10:20:24;;;;;;;2.40;1.10;;;;;;;19.76;37.43;99796.66;4925701;29;20039;-78
2023/09/08 10:23:15;;;;;;;4.65;1.30;;;;;;;19.48;37.99;99799.75;4941563;29;20036;-76
2023/09/08 10:25:53;;;;;;;4.38;1.17;;;;;;;18.81;38.60;99771.03;4923300;29;20075;-76
2023/09/08 10:28:25;;;;;;;4.13;1.55;;;;;;;18.18;41.55;99742.94;4893534;29;20039;-76
2023/09/08 10:30:52;;;;;;;6.28;1.60;;;;;;;18.44;43.18;99820.88;4909507;29;20040;-74
2023/09/08 10:33:20;;;;;;;5.07;1.45;;;;;;;18.01;44.65;99776.06;4923878;29;20040;-76
2023/09/08 10:35:46;;;;;;;3.03;1.60;;;;;;;17.92;46.28;99823.78;4940481;29;20043;-75
2023/09/08 10:38:26;;;;;;;6.15;1.75;;;;;;;17.55;47.26;99817.28;4907074;29;20576;-76
2023/09/08 10:41:13;;;;;;;2.85;1.88;;;;;;;17.38;48.32;99800.38;4924112;29;20043;-77
2023/09/08 10:43:39;;;;;;;3.65;1.45;;;;;;;16.89;49.28;99711.00;4915402;29;20039;-75
2023/09/08 10:46:12;;;;;;;3.40;1.30;;;;;;;17.82;49.46;99819.78;4924157;29;20095;-80
2023/09/08 10:48:44;;;;;;;3.20;1.30;;;;;;;17.91;48.93;99769.44;4943025;29;20060;-81
2023/09/08 10:51:14;;;;;;;4.57;1.50;;;;;;;18.46;48.81;99815.53;4926723;29;20550;-81
2023/09/08 10:53:47;;;;;;;3.75;1.63;;;;;;;18.70;48.41;99800.47;4930328;29;20043;-85
2023/09/08 10:56:13;;;;;;;4.97;1.70;;;;;;;18.80;48.10;99780.69;4926778;29;20044;-81
2023/09/08 10:58:42;;;;;;;4.88;1.90;;;;;;;19.20;47.85;99796.59;4939916;29;20049;-81
2023/09/08 11:01:15;;;;;;;3.35;1.60;;;;;;;19.45;47.35;99782.28;4924609;29;20135;-76
2023/09/08 11:03:41;;;;;;;2.33;1.42;;;;;;;19.59;47.03;99781.66;4945995;28;20046;-79
2023/09/08 11:06:09;;;;;;;2.45;1.40;;;;;;;19.83;46.67;99810.47;4928311;29;20449;-80
2023/09/08 11:08:46;;;;;;;3.83;1.80;;;;;;;19.63;45.98;99763.88;4927961;29;20043;-79
2023/09/08 11:11:13;;;;;;;1.90;1.50;;;;;;;19.65;45.15;99756.75;4928738;29;20044;-75
2023/09/08 11:13:45;;;;;;;4.30;1.50;;;;;;;19.98;45.40;99801.81;4895954;29;20463;-80
2023/09/08 11:16:13;;;;;;;2.75;1.50;;;;;;;20.00;45.09;99804.38;4944727;29;20044;-78
2023/09/08 11:18:40;;;;;;;2.90;1.33;;;;;;;20.03;44.49;99798.97;4945715;29;20288;-81
2023/09/08 11:21:08;;;;;;;2.90;1.58;;;;;;;19.69;44.35;99763.59;4940540;29;20081;-79
2023/09/08 11:23:35;;;;;;;2.33;1.30;;;;;;;19.24;44.09;99755.97;4927396;29;20044;-75
2023/09/08 11:26:01;;;;;;;4.43;1.42;;;;;;;19.18;44.79;99814.25;4926644;29;20091;-76
2023/09/08 11:28:28;;;;;;;6.50;1.30;;;;;;;18.77;45.74;99806.34;4927579;29;20040;-76
2023/09/08 11:30:55;;;;;;;2.58;1.35;;;;;;;18.43;46.37;99802.47;4927550;29;20048;-74
2023/09/08 11:33:27;;;;;;;2.17;1.20;;;;;;;18.04;46.87;99815.44;4926438;29;20051;-77